createdAt,value
2023-10-15T00:01:14.509Z,0.75
2023-10-15T00:03:48.102Z,0.70
2023-10-15T00:06:20.970Z,0.85
2023-10-15T00:08:47.709Z,0.80
2023-10-15T00:11:21.951Z,0.65
2023-10-15T00:13:49.521Z,0.80
2023-10-15T00:16:28.041Z,0.82
2023-10-15T00:18:54.874Z,0.90
2023-10-15T00:21:28.987Z,0.80
2023-10-15T00:24:01.940Z,0.98
2023-10-15T00:26:35.943Z,0.70
2023-10-15T00:29:03.071Z,0.80
2023-10-15T00:31:29.854Z,0.88
2023-10-15T00:34:02.948Z,0.85
2023-10-15T00:36:36.036Z,0.68
2023-10-15T00:39:02.945Z,0.80
2023-10-15T00:41:35.932Z,0.88
2023-10-15T00:44:08.964Z,0.95
2023-10-15T00:46:39.219Z,1.45
2023-10-15T00:49:23.165Z,1.02
2023-10-15T00:51:53.000Z,0.90
2023-10-15T00:54:27.091Z,0.80
2023-10-15T00:56:56.085Z,0.80
2023-10-15T00:59:29.008Z,0.88
2023-10-15T01:02:02.087Z,0.82
2023-10-15T01:04:39.981Z,0.60
2023-10-15T01:07:29.519Z,0.85
2023-10-15T01:10:04.997Z,1.15
2023-10-15T01:12:34.784Z,0.90
2023-10-15T01:15:08.069Z,1.05
2023-10-15T01:17:40.652Z,0.60
2023-10-15T01:20:18.023Z,0.90
2023-10-15T01:22:44.824Z,0.80
2023-10-15T01:25:25.113Z,0.60
2023-10-15T01:27:56.864Z,0.82
2023-10-15T01:30:31.990Z,0.75
2023-10-15T01:33:07.418Z,0.93
2023-10-15T01:35:41.102Z,0.95
2023-10-15T01:38:21.626Z,0.90
2023-10-15T01:41:00.020Z,0.95
2023-10-15T01:43:33.977Z,0.77
2023-10-15T01:46:08.186Z,0.90
2023-10-15T01:48:46.986Z,0.90
2023-10-15T01:51:23.994Z,0.80
2023-10-15T01:53:59.002Z,0.80
2023-10-15T01:56:31.946Z,0.60
2023-10-15T01:59:04.978Z,0.70
2023-10-15T02:01:57.026Z,1.00
2023-10-15T02:04:37.041Z,0.63
2023-10-15T02:07:03.948Z,0.77
2023-10-15T02:09:37.999Z,0.52
2023-10-15T02:12:06.561Z,0.90
2023-10-15T02:14:39.989Z,0.50
2023-10-15T02:17:07.786Z,0.90
2023-10-15T02:19:49.281Z,0.70
2023-10-15T02:22:17.053Z,0.80
2023-10-15T02:24:56.075Z,0.80
2023-10-15T02:27:26.445Z,0.50
2023-10-15T02:30:00.008Z,0.80
2023-10-15T02:32:30.620Z,0.52
2023-10-15T02:35:07.057Z,0.82
2023-10-15T02:37:33.864Z,0.60
2023-10-15T02:40:08.039Z,0.80
2023-10-15T02:42:43.973Z,0.60
2023-10-15T02:45:21.990Z,1.00
2023-10-15T02:47:56.657Z,0.80
2023-10-15T02:50:34.022Z,0.75
2023-10-15T02:53:06.431Z,0.80
2023-10-15T02:55:55.073Z,0.50
2023-10-15T02:58:28.685Z,1.00
2023-10-15T03:01:07.078Z,0.90
2023-10-15T03:03:56.353Z,0.70
2023-10-15T03:06:40.047Z,0.73
2023-10-15T03:09:19.043Z,0.95
2023-10-15T03:11:58.033Z,1.00
2023-10-15T03:14:26.718Z,0.70
2023-10-15T03:17:05.007Z,0.80
2023-10-15T03:19:41.051Z,0.80
2023-10-15T03:22:10.229Z,0.60
2023-10-15T03:24:45.037Z,0.60
2023-10-15T03:27:17.499Z,0.73
2023-10-15T03:29:59.101Z,0.80
2023-10-15T03:32:39.090Z,0.70
2023-10-15T03:35:26.099Z,0.77
2023-10-15T03:38:07.055Z,0.70
2023-10-15T03:40:41.067Z,0.63
2023-10-15T03:43:15.066Z,0.70
2023-10-15T03:45:58.139Z,0.60
2023-10-15T03:48:31.752Z,0.57
2023-10-15T03:51:06.053Z,0.77
2023-10-15T03:53:37.466Z,0.85
2023-10-15T03:56:12.089Z,0.70
2023-10-15T03:58:38.860Z,0.77
2023-10-15T04:01:24.086Z,0.88
2023-10-15T04:03:57.913Z,0.90
2023-10-15T04:06:31.047Z,0.80
2023-10-15T04:09:16.693Z,0.88
2023-10-15T04:11:50.031Z,0.80
2023-10-15T04:14:29.999Z,0.60
2023-10-15T04:17:07.798Z,0.73
2023-10-15T04:19:37.396Z,0.77
2023-10-15T04:22:23.200Z,0.68
2023-10-15T04:24:51.537Z,0.73
2023-10-15T04:27:26.074Z,0.60
2023-10-15T04:29:54.811Z,0.70
2023-10-15T04:32:37.123Z,0.80
2023-10-15T04:35:07.257Z,0.90
2023-10-15T04:37:44.120Z,0.98
2023-10-15T04:40:19.363Z,0.75
2023-10-15T04:42:59.070Z,0.75
2023-10-15T04:45:26.887Z,0.80
2023-10-15T04:48:07.084Z,0.70
2023-10-15T04:50:37.705Z,1.00
2023-10-15T04:53:32.057Z,0.80
2023-10-15T04:56:01.263Z,1.00
2023-10-15T04:58:37.156Z,0.90
2023-10-15T05:01:11.243Z,0.93
2023-10-15T05:03:54.156Z,1.00
2023-10-15T05:06:22.655Z,0.77
2023-10-15T05:08:56.050Z,0.90
2023-10-15T05:11:29.078Z,0.90
2023-10-15T05:14:02.144Z,0.82
2023-10-15T05:16:29.056Z,1.00
2023-10-15T05:18:55.882Z,1.02
2023-10-15T05:21:29.113Z,0.98
2023-10-15T05:23:55.816Z,1.13
2023-10-15T05:26:30.137Z,0.98
2023-10-15T05:28:56.856Z,0.73
2023-10-15T05:31:30.239Z,0.80
2023-10-15T05:33:57.058Z,1.00
2023-10-15T05:36:30.128Z,0.70
2023-10-15T05:38:56.805Z,0.75
2023-10-15T05:41:32.126Z,1.00
2023-10-15T05:43:59.273Z,0.80
2023-10-15T05:46:34.161Z,0.90
2023-10-15T05:49:07.110Z,0.90
2023-10-15T05:51:34.063Z,1.23
2023-10-15T05:54:14.089Z,0.98
2023-10-15T05:56:40.934Z,0.75
2023-10-15T05:59:16.076Z,1.17
2023-10-15T06:01:49.268Z,1.10
2023-10-15T06:04:29.266Z,0.77
2023-10-15T06:06:56.896Z,0.82
2023-10-15T06:09:30.066Z,0.95
2023-10-15T06:11:56.720Z,0.90
2023-10-15T06:14:31.065Z,0.80
2023-10-15T06:16:58.353Z,1.00
2023-10-15T06:19:32.153Z,0.80
2023-10-15T06:21:58.937Z,0.90
2023-10-15T06:24:32.067Z,0.95
2023-10-15T06:27:05.741Z,0.88
2023-10-15T06:29:39.135Z,1.10
2023-10-15T06:32:12.176Z,0.93
2023-10-15T06:34:40.695Z,0.98
2023-10-15T06:37:17.110Z,0.90
2023-10-15T06:39:43.819Z,0.80
2023-10-15T06:42:17.113Z,0.90
2023-10-15T06:44:43.849Z,1.02
2023-10-15T06:47:17.207Z,1.10
2023-10-15T06:49:43.956Z,0.90
2023-10-15T06:52:17.161Z,0.88
2023-10-15T06:54:43.820Z,1.00
2023-10-15T06:57:17.156Z,1.25
2023-10-15T06:59:46.884Z,1.02
2023-10-15T07:02:27.186Z,1.02
2023-10-15T07:05:00.208Z,1.38
2023-10-15T07:07:26.903Z,1.27
2023-10-15T07:10:01.152Z,1.63
2023-10-15T07:12:34.156Z,1.63
2023-10-15T07:15:07.114Z,1.50
2023-10-15T07:17:33.924Z,1.70
2023-10-15T07:20:07.126Z,1.40
2023-10-15T07:22:33.828Z,1.38
2023-10-15T07:25:07.093Z,1.40
2023-10-15T07:27:34.197Z,1.63
2023-10-15T07:30:07.152Z,1.50
2023-10-15T07:32:41.192Z,1.63
2023-10-15T07:35:19.157Z,1.93
2023-10-15T07:37:54.183Z,1.50
2023-10-15T07:40:34.652Z,1.40
2023-10-15T07:43:02.076Z,1.20
2023-10-15T07:45:37.127Z,1.52
2023-10-15T07:48:05.711Z,1.20
2023-10-15T07:50:42.231Z,1.20
2023-10-15T07:53:15.155Z,1.30
2023-10-15T07:55:42.150Z,1.27
2023-10-15T07:58:17.194Z,1.20
2023-10-15T08:00:43.969Z,1.08
2023-10-15T08:03:24.400Z,1.13
2023-10-15T08:05:51.770Z,0.95
2023-10-15T08:08:25.119Z,1.20
2023-10-15T08:11:00.196Z,1.10
2023-10-15T08:13:26.959Z,1.00
2023-10-15T08:16:00.198Z,1.10
2023-10-15T08:18:34.203Z,1.10
2023-10-15T08:21:07.116Z,1.30
2023-10-15T08:23:33.828Z,1.02
2023-10-15T08:26:07.258Z,1.10
2023-10-15T08:28:34.193Z,1.00
2023-10-15T08:31:08.291Z,1.10
2023-10-15T08:33:35.286Z,0.70
2023-10-15T08:36:10.210Z,1.00
2023-10-15T08:38:36.991Z,1.02
2023-10-15T08:41:16.239Z,1.42
2023-10-15T08:43:52.265Z,0.70
2023-10-15T08:46:30.333Z,1.02
2023-10-15T08:49:07.151Z,1.10
2023-10-15T08:51:37.947Z,1.00
2023-10-15T08:54:12.180Z,0.90
2023-10-15T08:56:40.149Z,0.80
2023-10-15T08:59:17.208Z,1.10
2023-10-15T09:01:51.523Z,1.00
2023-10-15T09:04:31.184Z,0.93
2023-10-15T09:07:14.209Z,1.10
2023-10-15T09:09:54.190Z,0.88
2023-10-15T09:12:20.989Z,0.80
2023-10-15T09:14:57.169Z,0.70
2023-10-15T09:17:25.822Z,0.80
2023-10-15T09:20:00.282Z,0.85
2023-10-15T09:22:27.722Z,0.65
2023-10-15T09:25:01.241Z,0.90
2023-10-15T09:27:28.197Z,0.70
2023-10-15T09:30:26.261Z,0.95
2023-10-15T09:32:53.363Z,0.70
2023-10-15T09:35:24.107Z,0.80
2023-10-15T09:37:57.204Z,0.47
2023-10-15T09:40:39.254Z,0.70
2023-10-15T09:43:13.223Z,0.68
2023-10-15T09:45:49.192Z,0.70
2023-10-15T09:48:16.240Z,0.57
2023-10-15T09:50:44.030Z,1.17
2023-10-15T09:53:18.262Z,0.80
2023-10-15T09:55:47.135Z,0.73
2023-10-15T09:58:20.210Z,0.70
2023-10-15T10:00:55.023Z,0.40
2023-10-15T10:03:55.295Z,0.80
2023-10-15T10:06:33.067Z,0.85
2023-10-15T10:09:06.259Z,0.77
2023-10-15T10:11:58.092Z,0.70
2023-10-15T10:14:52.236Z,0.82
2023-10-15T10:17:22.145Z,0.70
2023-10-15T10:20:00.397Z,0.77
2023-10-15T10:22:28.228Z,0.80
2023-10-15T10:25:03.233Z,0.70
2023-10-15T10:27:41.116Z,0.57
2023-10-15T10:30:35.234Z,1.13
2023-10-15T10:33:05.623Z,0.93
2023-10-15T10:35:51.249Z,1.38
2023-10-15T10:38:19.706Z,0.88
2023-10-15T10:40:55.290Z,0.70
2023-10-15T10:43:25.908Z,0.70
2023-10-15T10:46:03.252Z,0.70
2023-10-15T10:48:34.742Z,0.65
2023-10-15T10:51:29.220Z,0.70
2023-10-15T10:53:58.957Z,0.90
2023-10-15T10:56:52.294Z,1.02
2023-10-15T10:59:20.295Z,0.82
2023-10-15T11:01:53.361Z,0.80
2023-10-15T11:04:26.821Z,0.80
2023-10-15T11:07:00.235Z,0.80
2023-10-15T11:09:26.993Z,0.90
2023-10-15T11:12:01.288Z,0.70
2023-10-15T11:14:30.831Z,0.70
2023-10-15T11:17:04.269Z,0.85
2023-10-15T11:19:31.411Z,0.90
2023-10-15T11:22:05.309Z,1.00
2023-10-15T11:24:38.260Z,1.13
2023-10-15T11:27:08.880Z,1.20
2023-10-15T11:29:42.212Z,0.90
2023-10-15T11:32:12.891Z,1.00
2023-10-15T11:34:47.301Z,0.75
2023-10-15T11:37:15.115Z,0.82
2023-10-15T11:39:55.306Z,1.00
2023-10-15T11:42:22.218Z,0.75
2023-10-15T11:45:03.290Z,0.85
2023-10-15T11:47:40.413Z,0.88
2023-10-15T11:50:08.630Z,0.93
2023-10-15T11:52:48.370Z,0.82
2023-10-15T11:55:20.911Z,1.00
2023-10-15T11:58:02.264Z,0.95
2023-10-15T12:00:34.867Z,0.98
2023-10-15T12:03:17.495Z,1.00
2023-10-15T12:05:51.322Z,0.90
2023-10-15T12:08:32.358Z,1.20
2023-10-15T12:10:59.243Z,1.10
2023-10-15T12:13:32.321Z,1.10
2023-10-15T12:15:59.030Z,1.05
2023-10-15T12:18:32.304Z,1.40
2023-10-15T12:21:07.281Z,1.00
2023-10-15T12:23:34.341Z,1.15
2023-10-15T12:26:08.333Z,1.10
2023-10-15T12:28:51.417Z,0.75
2023-10-15T12:31:18.954Z,1.00
2023-10-15T12:33:47.906Z,1.23
2023-10-15T12:36:21.286Z,1.00
2023-10-15T12:38:49.347Z,0.82
2023-10-15T12:41:23.365Z,1.42
2023-10-15T12:43:50.691Z,0.90
2023-10-15T12:46:24.326Z,1.08
2023-10-15T12:48:50.969Z,0.90
2023-10-15T12:51:24.326Z,0.60
2023-10-15T12:53:57.350Z,0.50
2023-10-15T12:56:35.373Z,0.50
2023-10-15T12:59:02.159Z,0.50
2023-10-15T13:01:28.955Z,0.52
2023-10-15T13:04:02.341Z,0.47
2023-10-15T13:06:29.032Z,0.63
2023-10-15T13:09:03.312Z,0.70
2023-10-15T13:11:30.056Z,0.40
2023-10-15T13:14:03.375Z,0.50
2023-10-15T13:16:31.207Z,0.30
2023-10-15T13:19:04.300Z,0.45
2023-10-15T13:21:31.145Z,0.57
2023-10-15T13:24:05.309Z,0.55
2023-10-15T13:26:38.370Z,0.70
2023-10-15T13:29:11.387Z,0.60
2023-10-15T13:31:38.542Z,0.85
2023-10-15T13:34:14.357Z,0.80
2023-10-15T13:36:41.101Z,0.80
2023-10-15T13:39:23.368Z,0.70
2023-10-15T13:41:50.328Z,1.27
2023-10-15T13:44:23.401Z,1.20
2023-10-15T13:46:56.341Z,1.10
2023-10-15T13:49:23.261Z,1.40
2023-10-15T13:51:56.372Z,1.02
2023-10-15T13:54:23.570Z,0.80
2023-10-15T13:56:57.357Z,1.15
2023-10-15T13:59:24.393Z,0.90
2023-10-15T14:01:58.486Z,0.90
2023-10-15T14:04:32.466Z,1.00
2023-10-15T14:07:05.398Z,1.00
2023-10-15T14:09:38.973Z,0.60
2023-10-15T14:12:12.376Z,1.20
2023-10-15T14:14:39.152Z,0.65
2023-10-15T14:17:12.540Z,0.98
2023-10-15T14:19:39.876Z,0.98
2023-10-15T14:22:13.333Z,0.82
2023-10-15T14:24:40.016Z,0.88
2023-10-15T14:27:06.686Z,1.10
2023-10-15T14:29:40.363Z,0.75
2023-10-15T14:32:08.019Z,0.80
2023-10-15T14:34:41.438Z,0.80
2023-10-15T14:37:08.188Z,0.98
2023-10-15T14:39:41.348Z,0.90
2023-10-15T14:42:08.083Z,1.25
2023-10-15T14:44:42.391Z,1.00
2023-10-15T14:47:16.440Z,1.00
2023-10-15T14:49:51.498Z,0.95
2023-10-15T14:52:24.334Z,0.90
2023-10-15T14:54:57.344Z,1.00
2023-10-15T14:57:30.416Z,0.90
2023-10-15T14:59:57.172Z,1.33
2023-10-15T15:02:30.444Z,1.00
2023-10-15T15:04:57.275Z,0.90
2023-10-15T15:07:30.389Z,0.98
2023-10-15T15:09:57.217Z,1.00
2023-10-15T15:12:30.397Z,0.80
2023-10-15T15:14:58.373Z,0.90
2023-10-15T15:17:31.505Z,0.70
2023-10-15T15:20:05.444Z,1.00
2023-10-15T15:22:41.026Z,0.88
2023-10-15T15:25:09.300Z,1.20
2023-10-15T15:27:43.468Z,1.05
2023-10-15T15:30:10.890Z,0.90
2023-10-15T15:32:38.554Z,0.98
2023-10-15T15:35:15.594Z,0.70
2023-10-15T15:37:43.374Z,0.90
2023-10-15T15:40:19.466Z,0.93
2023-10-15T15:42:46.181Z,0.98
2023-10-15T15:45:20.434Z,0.80
2023-10-15T15:47:48.592Z,0.90
2023-10-15T15:50:25.403Z,0.90
2023-10-15T15:52:52.181Z,0.90
2023-10-15T15:55:25.411Z,1.00
2023-10-15T15:57:59.452Z,0.98
2023-10-15T16:00:27.712Z,0.90
2023-10-15T16:03:01.544Z,1.10
2023-10-15T16:05:43.512Z,1.20
2023-10-15T16:08:16.486Z,1.08
2023-10-15T16:10:49.554Z,1.00
2023-10-15T16:13:17.265Z,1.13
2023-10-15T16:15:50.464Z,1.08
2023-10-15T16:18:23.468Z,1.23
2023-10-15T16:20:52.931Z,1.35
2023-10-15T16:23:26.444Z,1.90
2023-10-15T16:25:53.865Z,1.23
2023-10-15T16:28:27.430Z,1.30
2023-10-15T16:30:55.367Z,1.05
2023-10-15T16:33:28.465Z,1.35
2023-10-15T16:35:55.414Z,1.73
2023-10-15T16:38:28.420Z,1.38
2023-10-15T16:41:01.392Z,1.50
2023-10-15T16:43:34.443Z,1.40
2023-10-15T16:46:08.605Z,1.40
2023-10-15T16:48:35.494Z,1.40
2023-10-15T16:51:24.305Z,1.17
2023-10-15T16:53:52.794Z,0.90
2023-10-15T16:56:26.499Z,1.20
2023-10-15T16:58:53.408Z,1.10
2023-10-15T17:01:27.560Z,1.30
2023-10-15T17:04:01.201Z,1.42
2023-10-15T17:06:41.473Z,1.60
2023-10-15T17:09:14.761Z,1.50
2023-10-15T17:11:48.538Z,1.60
2023-10-15T17:14:15.802Z,1.00
2023-10-15T17:16:49.566Z,1.00
2023-10-15T17:19:16.370Z,1.10
2023-10-15T17:21:50.443Z,1.08
2023-10-15T17:24:23.585Z,1.13
2023-10-15T17:26:56.431Z,1.15
2023-10-15T17:29:33.866Z,1.10
2023-10-15T17:32:02.994Z,1.65
2023-10-15T17:34:36.507Z,2.78
2023-10-15T17:39:56.463Z,1.33
2023-10-15T17:42:23.363Z,1.20
2023-10-15T17:44:57.472Z,0.85
2023-10-15T17:47:24.360Z,0.90
2023-10-15T17:48:02.658Z,1.60
2023-10-15T17:49:57.445Z,1.00
2023-10-15T17:52:24.187Z,1.40
2023-10-15T17:54:57.482Z,1.75
2023-10-15T17:57:30.602Z,1.45
2023-10-15T18:00:03.460Z,1.40
2023-10-15T18:02:50.522Z,1.30
2023-10-15T18:05:24.532Z,1.10
2023-10-15T18:07:51.410Z,1.10
2023-10-15T18:10:25.431Z,1.20
2023-10-15T18:12:52.125Z,1.30
2023-10-15T18:15:18.933Z,1.30
2023-10-15T18:17:52.506Z,1.38
2023-10-15T18:20:20.201Z,1.00
2023-10-15T18:22:53.557Z,1.63
2023-10-15T18:25:20.267Z,1.33
2023-10-15T18:27:53.485Z,1.10
2023-10-15T18:30:26.531Z,1.23
2023-10-15T18:32:59.566Z,1.30
2023-10-15T18:35:26.327Z,1.75
2023-10-15T18:37:59.546Z,1.60
2023-10-15T18:40:32.518Z,1.55
2023-10-15T18:43:06.500Z,1.70
2023-10-15T18:45:43.543Z,1.13
2023-10-15T18:48:16.510Z,1.10
2023-10-15T18:50:50.699Z,1.42
2023-10-15T18:53:17.536Z,1.20
2023-10-15T18:55:50.610Z,1.13
2023-10-15T18:58:17.311Z,1.67
2023-10-15T19:00:50.616Z,1.00
2023-10-15T19:03:37.667Z,1.05
2023-10-15T19:06:11.513Z,1.15
2023-10-15T19:08:39.081Z,1.45
2023-10-15T19:11:05.804Z,1.30
2023-10-15T19:13:38.488Z,1.17
2023-10-15T19:16:12.501Z,1.05
2023-10-15T19:18:48.549Z,1.15
2023-10-15T19:21:15.334Z,1.20
2023-10-15T19:23:51.528Z,0.90
2023-10-15T19:26:27.538Z,1.23
2023-10-15T19:28:54.341Z,1.10
2023-10-15T19:31:21.431Z,1.40
2023-10-15T19:33:54.601Z,1.70
2023-10-15T19:36:21.349Z,2.13
2023-10-15T19:38:54.562Z,1.98
2023-10-15T19:41:21.214Z,1.30
2023-10-15T19:43:54.493Z,1.15
2023-10-15T19:46:21.326Z,1.20
2023-10-15T19:48:55.578Z,1.25
2023-10-15T19:51:22.326Z,1.13
2023-10-15T19:53:55.559Z,1.20
2023-10-15T19:56:22.319Z,1.23
2023-10-15T19:58:55.540Z,1.70
2023-10-15T20:01:22.222Z,1.20
2023-10-15T20:04:07.372Z,1.45
2023-10-15T20:06:41.560Z,1.20
2023-10-15T20:09:11.679Z,1.67
2023-10-15T20:11:45.592Z,1.40
2023-10-15T20:14:12.398Z,1.60
2023-10-15T20:16:45.608Z,1.63
2023-10-15T20:19:12.233Z,1.20
2023-10-15T20:21:46.554Z,1.52
2023-10-15T20:24:20.556Z,1.70
2023-10-15T20:26:53.543Z,1.30
2023-10-15T20:29:20.218Z,1.35
2023-10-15T20:31:53.542Z,1.27
2023-10-15T20:34:20.257Z,1.75
2023-10-15T20:36:46.987Z,1.48
2023-10-15T20:39:26.545Z,1.70
2023-10-15T20:41:53.292Z,1.50
2023-10-15T20:44:27.714Z,1.65
2023-10-15T20:46:54.735Z,1.50
2023-10-15T20:49:27.543Z,1.50
2023-10-15T20:51:54.359Z,1.90
2023-10-15T20:54:27.762Z,1.60
2023-10-15T20:57:01.512Z,1.35
2023-10-15T20:59:35.597Z,1.60
2023-10-15T21:02:02.980Z,1.80
2023-10-15T21:04:43.540Z,1.70
2023-10-15T21:07:10.626Z,1.60
2023-10-15T21:09:43.579Z,1.73
2023-10-15T21:12:11.497Z,1.83
2023-10-15T21:14:45.524Z,1.83
2023-10-15T21:17:18.529Z,1.88
2023-10-15T21:19:51.557Z,1.53
2023-10-15T21:22:24.717Z,2.00
2023-10-15T21:24:51.608Z,1.80
2023-10-15T21:27:27.578Z,1.70
2023-10-15T21:29:54.637Z,1.83
2023-10-15T21:32:21.304Z,1.90
2023-10-15T21:34:54.614Z,1.98
2023-10-15T21:37:27.581Z,1.90
2023-10-15T21:39:54.322Z,1.70
2023-10-15T21:42:27.577Z,1.80
2023-10-15T21:44:54.278Z,1.90
2023-10-15T21:47:27.596Z,1.90
2023-10-15T21:49:54.334Z,1.70
2023-10-15T21:52:27.601Z,1.77
2023-10-15T21:54:54.290Z,2.00
2023-10-15T21:57:21.021Z,1.77
2023-10-15T21:59:55.631Z,2.17
2023-10-15T22:02:22.426Z,1.97
2023-10-15T22:04:55.614Z,1.67
2023-10-15T22:07:22.313Z,1.90
2023-10-15T22:09:55.674Z,2.17
2023-10-15T22:12:23.690Z,1.70
2023-10-15T22:14:56.634Z,1.70
2023-10-15T22:17:23.373Z,1.80
2023-10-15T22:19:51.542Z,1.80
2023-10-15T22:22:25.614Z,2.20
2023-10-15T22:24:59.621Z,2.20
2023-10-15T22:27:27.037Z,2.10
2023-10-15T22:30:01.628Z,1.63
2023-10-15T22:32:30.789Z,2.07
2023-10-15T22:35:01.265Z,2.70
2023-10-15T22:37:35.617Z,2.07
2023-10-15T22:40:08.589Z,2.07
2023-10-15T22:42:35.344Z,1.73
2023-10-15T22:45:08.650Z,2.05
2023-10-15T22:47:45.632Z,2.03
2023-10-15T22:50:17.839Z,1.90
2023-10-15T22:52:51.571Z,2.20
2023-10-15T22:55:18.408Z,1.80
2023-10-15T22:57:51.687Z,2.00
2023-10-15T23:00:24.225Z,2.23
2023-10-15T23:02:59.608Z,2.20
2023-10-15T23:05:43.571Z,1.70
2023-10-15T23:08:17.658Z,2.00
2023-10-15T23:10:44.428Z,2.03
2023-10-15T23:13:17.654Z,2.20
2023-10-15T23:15:44.500Z,1.90
2023-10-15T23:18:23.724Z,2.00
2023-10-15T23:20:53.616Z,1.73
2023-10-15T23:23:27.640Z,2.23
2023-10-15T23:25:54.588Z,2.07
2023-10-15T23:28:33.630Z,1.97
2023-10-15T23:31:08.736Z,2.00
2023-10-15T23:33:35.535Z,1.90
2023-10-15T23:36:13.729Z,1.90
2023-10-15T23:38:42.475Z,1.90
2023-10-15T23:41:15.703Z,2.00
2023-10-15T23:43:42.378Z,2.10
2023-10-15T23:46:15.695Z,2.30
2023-10-15T23:48:49.660Z,1.90
2023-10-15T23:51:22.687Z,2.07
2023-10-15T23:53:53.596Z,2.00
2023-10-15T23:56:32.613Z,1.90
2023-10-15T23:58:59.386Z,1.90
